sensor_id;sensor_type;location;lat;lon;timestamp;pressure;altitude;pressure_sealevel;temperature;humidity
62524;BME280;53689;56.878;60.672;2023-02-21T00:00:50;96952.38;;;16.40;18.10
62524;BME280;53689;56.878;60.672;2023-02-21T00:03:18;96937.63;;;16.44;16.89
62524;BME280;53689;56.878;60.672;2023-02-21T00:05:47;96939.03;;;16.40;17.79
62524;BME280;53689;56.878;60.672;2023-02-21T00:08:15;96935.72;;;16.38;17.79
62524;BME280;53689;56.878;60.672;2023-02-21T00:10:42;96937.38;;;16.39;17.47
62524;BME280;53689;56.878;60.672;2023-02-21T00:13:10;96915.63;;;16.42;17.38
62524;BME280;53689;56.878;60.672;2023-02-21T00:15:38;96928.34;;;16.40;17.23
62524;BME280;53689;56.878;60.672;2023-02-21T00:18:06;96924.69;;;16.41;17.34
62524;BME280;53689;56.878;60.672;2023-02-21T00:20:33;96927.72;;;16.38;16.89
62524;BME280;53689;56.878;60.672;2023-02-21T00:23:02;96933.06;;;16.38;17.64
62524;BME280;53689;56.878;60.672;2023-02-21T00:25:30;96926.69;;;16.39;17.47
62524;BME280;53689;56.878;60.672;2023-02-21T00:27:59;96934.50;;;16.34;17.62
62524;BME280;53689;56.878;60.672;2023-02-21T00:30:27;96936.16;;;16.42;17.25
62524;BME280;53689;56.878;60.672;2023-02-21T00:32:57;96915.38;;;16.37;17.42
62524;BME280;53689;56.878;60.672;2023-02-21T00:35:25;96909.47;;;16.42;17.43
62524;BME280;53689;56.878;60.672;2023-02-21T00:37:52;96908.81;;;16.33;17.11
62524;BME280;53689;56.878;60.672;2023-02-21T00:40:22;96917.25;;;16.36;17.89
62524;BME280;53689;56.878;60.672;2023-02-21T00:42:50;96916.41;;;16.36;17.56
62524;BME280;53689;56.878;60.672;2023-02-21T00:45:17;96920.97;;;16.42;17.66
62524;BME280;53689;56.878;60.672;2023-02-21T00:47:45;96916.66;;;16.41;17.94
62524;BME280;53689;56.878;60.672;2023-02-21T00:50:13;96924.69;;;16.41;18.05
62524;BME280;53689;56.878;60.672;2023-02-21T00:52:40;96925.91;;;16.45;17.16
62524;BME280;53689;56.878;60.672;2023-02-21T00:55:08;96919.75;;;16.45;17.65
62524;BME280;53689;56.878;60.672;2023-02-21T00:57:38;96927.53;;;16.40;17.29
62524;BME280;53689;56.878;60.672;2023-02-21T01:00:07;96939.03;;;16.40;17.43
62524;BME280;53689;56.878;60.672;2023-02-21T01:02:35;96948.91;;;16.40;17.67
62524;BME280;53689;56.878;60.672;2023-02-21T01:05:03;96926.16;;;16.50;17.93
62524;BME280;53689;56.878;60.672;2023-02-21T01:07:31;96922.22;;;16.46;17.98
62524;BME280;53689;56.878;60.672;2023-02-21T01:09:59;96927.56;;;16.46;17.45
62524;BME280;53689;56.878;60.672;2023-02-21T01:12:26;96926.06;;;16.37;17.50
62524;BME280;53689;56.878;60.672;2023-02-21T01:14:56;96928.75;;;16.37;17.81
62524;BME280;53689;56.878;60.672;2023-02-21T01:17:25;96933.47;;;16.35;17.68
62524;BME280;53689;56.878;60.672;2023-02-21T01:19:52;96926.03;;;16.30;17.39
62524;BME280;53689;56.878;60.672;2023-02-21T01:22:20;96931.81;;;16.34;17.46
62524;BME280;53689;56.878;60.672;2023-02-21T01:24:48;96927.94;;;16.36;18.13
62524;BME280;53689;56.878;60.672;2023-02-21T01:27:16;96926.91;;;16.38;17.06
62524;BME280;53689;56.878;60.672;2023-02-21T01:29:44;96920.56;;;16.39;17.48
62524;BME280;53689;56.878;60.672;2023-02-21T01:32:13;96917.25;;;16.36;17.65
62524;BME280;53689;56.878;60.672;2023-02-21T01:34:40;96913.56;;;16.38;17.85
62524;BME280;53689;56.878;60.672;2023-02-21T01:37:08;96926.22;;;16.29;17.19
62524;BME280;53689;56.878;60.672;2023-02-21T01:39:35;96936.53;;;16.32;18.10
62524;BME280;53689;56.878;60.672;2023-02-21T01:42:04;96940.19;;;16.31;18.08
62524;BME280;53689;56.878;60.672;2023-02-21T01:44:35;96936.94;;;16.35;17.69
62524;BME280;53689;56.878;60.672;2023-02-21T01:47:03;96944.56;;;16.32;18.01
62524;BME280;53689;56.878;60.672;2023-02-21T01:49:34;96935.50;;;16.33;17.43
62524;BME280;53689;56.878;60.672;2023-02-21T01:52:04;96931.78;;;16.27;17.91
62524;BME280;53689;56.878;60.672;2023-02-21T01:54:35;96934.84;;;16.31;18.30
62524;BME280;53689;56.878;60.672;2023-02-21T01:57:05;96927.84;;;16.23;18.78
62524;BME280;53689;56.878;60.672;2023-02-21T01:59:33;96905.69;;;16.29;18.30
62524;BME280;53689;56.878;60.672;2023-02-21T02:02:08;96918.38;;;16.20;17.67
62524;BME280;53689;56.878;60.672;2023-02-21T02:04:40;96916.94;;;16.18;17.83
62524;BME280;53689;56.878;60.672;2023-02-21T02:07:09;96928.47;;;16.25;17.72
62524;BME280;53689;56.878;60.672;2023-02-21T02:09:37;96928.81;;;16.15;17.42
62524;BME280;53689;56.878;60.672;2023-02-21T02:12:14;96910.16;;;16.22;17.01
62524;BME280;53689;56.878;60.672;2023-02-21T02:14:57;96923.09;;;16.18;17.96
62524;BME280;53689;56.878;60.672;2023-02-21T02:17:38;96923.09;;;16.18;17.55
62524;BME280;53689;56.878;60.672;2023-02-21T02:20:46;96916.09;;;16.17;17.58
62524;BME280;53689;56.878;60.672;2023-02-21T02:26:45;96908.72;;;16.19;17.98
62524;BME280;53689;56.878;60.672;2023-02-21T02:29:34;96905.66;;;16.22;17.30
62524;BME280;53689;56.878;60.672;2023-02-21T02:35:04;96908.53;;;16.21;17.35
62524;BME280;53689;56.878;60.672;2023-02-21T02:37:46;96892.91;;;16.18;17.35
62524;BME280;53689;56.878;60.672;2023-02-21T02:40:22;96886.53;;;16.19;17.65
62524;BME280;53689;56.878;60.672;2023-02-21T02:43:02;96882.44;;;16.23;17.50
62524;BME280;53689;56.878;60.672;2023-02-21T02:45:36;96879.34;;;16.19;17.77
62524;BME280;53689;56.878;60.672;2023-02-21T02:48:10;96880.34;;;16.18;17.99
62524;BME280;53689;56.878;60.672;2023-02-21T02:50:45;96890.41;;;16.16;17.59
62524;BME280;53689;56.878;60.672;2023-02-21T02:53:17;96889.25;;;16.26;17.28
62524;BME280;53689;56.878;60.672;2023-02-21T02:55:50;96881.38;;;16.17;18.00
62524;BME280;53689;56.878;60.672;2023-02-21T02:58:20;96879.00;;;16.29;17.82
62524;BME280;53689;56.878;60.672;2023-02-21T03:01:02;96876.06;;;16.24;18.02
62524;BME280;53689;56.878;60.672;2023-02-21T03:03:51;96871.31;;;16.19;17.58
62524;BME280;53689;56.878;60.672;2023-02-21T03:06:32;96872.38;;;16.25;17.86
62524;BME280;53689;56.878;60.672;2023-02-21T03:09:02;96873.63;;;16.22;17.93
62524;BME280;53689;56.878;60.672;2023-02-21T03:11:33;96866.84;;;16.27;17.75
62524;BME280;53689;56.878;60.672;2023-02-21T03:14:07;96872.94;;;16.14;17.87
62524;BME280;53689;56.878;60.672;2023-02-21T03:16:40;96875.69;;;16.27;17.61
62524;BME280;53689;56.878;60.672;2023-02-21T03:19:12;96875.03;;;16.25;17.19
62524;BME280;53689;56.878;60.672;2023-02-21T03:21:45;96878.16;;;16.29;17.58
62524;BME280;53689;56.878;60.672;2023-02-21T03:24:15;96879.81;;;16.30;18.25
62524;BME280;53689;56.878;60.672;2023-02-21T03:26:47;96879.94;;;16.21;17.92
62524;BME280;53689;56.878;60.672;2023-02-21T03:29:43;96885.94;;;16.23;17.63
62524;BME280;53689;56.878;60.672;2023-02-21T03:32:14;96878.56;;;16.26;18.09
62524;BME280;53689;56.878;60.672;2023-02-21T03:34:46;96886.31;;;16.20;18.21
62524;BME280;53689;56.878;60.672;2023-02-21T03:37:27;96892.50;;;16.21;17.55
62524;BME280;53689;56.878;60.672;2023-02-21T03:39:56;96884.91;;;16.25;18.25
62524;BME280;53689;56.878;60.672;2023-02-21T03:42:24;96876.94;;;16.31;17.68
62524;BME280;53689;56.878;60.672;2023-02-21T03:44:52;96881.03;;;16.27;17.91
62524;BME280;53689;56.878;60.672;2023-02-21T03:47:20;96879.81;;;16.30;17.75
62524;BME280;53689;56.878;60.672;2023-02-21T03:49:48;96875.72;;;16.34;17.39
62524;BME280;53689;56.878;60.672;2023-02-21T03:52:16;96884.34;;;16.29;18.12
62524;BME280;53689;56.878;60.672;2023-02-21T03:54:45;96885.13;;;16.30;17.64
62524;BME280;53689;56.878;60.672;2023-02-21T03:57:16;96878.16;;;16.29;17.58
62524;BME280;53689;56.878;60.672;2023-02-21T03:59:46;96881.50;;;16.38;17.99
62524;BME280;53689;56.878;60.672;2023-02-21T04:02:14;96870.13;;;16.29;17.41
62524;BME280;53689;56.878;60.672;2023-02-21T04:04:42;96871.59;;;16.31;18.25
62524;BME280;53689;56.878;60.672;2023-02-21T04:07:14;96870.81;;;16.38;17.51
62524;BME280;53689;56.878;60.672;2023-02-21T04:09:41;96864.22;;;16.40;18.05
62524;BME280;53689;56.878;60.672;2023-02-21T04:12:15;96857.66;;;16.36;17.61
62524;BME280;53689;56.878;60.672;2023-02-21T04:14:43;96848.09;;;16.55;17.72
62524;BME280;53689;56.878;60.672;2023-02-21T04:17:11;96850.25;;;16.38;18.25
62524;BME280;53689;56.878;60.672;2023-02-21T04:19:39;96854.84;;;16.58;17.85
62524;BME280;53689;56.878;60.672;2023-02-21T04:22:07;96854.06;;;16.64;17.88
62524;BME280;53689;56.878;60.672;2023-02-21T04:24:34;96847.88;;;16.57;18.65
62524;BME280;53689;56.878;60.672;2023-02-21T04:27:02;96847.25;;;16.55;18.24
62524;BME280;53689;56.878;60.672;2023-02-21T04:29:35;96838.38;;;16.47;17.57
62524;BME280;53689;56.878;60.672;2023-02-21T04:32:03;96845.97;;;16.44;18.07
62524;BME280;53689;56.878;60.672;2023-02-21T04:34:32;96847.41;;;16.40;17.88
62524;BME280;53689;56.878;60.672;2023-02-21T04:37:00;96846.97;;;16.36;18.60
62524;BME280;53689;56.878;60.672;2023-02-21T04:39:28;96847.81;;;16.43;18.26
62524;BME280;53689;56.878;60.672;2023-02-21T04:41:56;96842.69;;;16.42;18.81
62524;BME280;53689;56.878;60.672;2023-02-21T04:44:23;96837.75;;;16.39;18.27
62524;BME280;53689;56.878;60.672;2023-02-21T04:46:52;96832.78;;;16.35;18.48
62524;BME280;53689;56.878;60.672;2023-02-21T04:49:20;96838.38;;;16.47;18.03
62524;BME280;53689;56.878;60.672;2023-02-21T04:51:48;96838.56;;;16.39;19.00
62524;BME280;53689;56.878;60.672;2023-02-21T04:54:15;96830.78;;;16.44;18.66
62524;BME280;53689;56.878;60.672;2023-02-21T04:56:43;96833.88;;;16.48;18.68
62524;BME280;53689;56.878;60.672;2023-02-21T04:59:10;96834.97;;;16.67;19.43
62524;BME280;53689;56.878;60.672;2023-02-21T05:01:38;96837.00;;;16.65;18.76
62524;BME280;53689;56.878;60.672;2023-02-21T05:04:07;96850.63;;;16.70;19.33
62524;BME280;53689;56.878;60.672;2023-02-21T05:06:36;96847.09;;;16.70;18.61
62524;BME280;53689;56.878;60.672;2023-02-21T05:09:03;96842.63;;;16.84;19.33
62524;BME280;53689;56.878;60.672;2023-02-21T05:11:32;96838.03;;;16.15;19.36
62524;BME280;53689;56.878;60.672;2023-02-21T05:14:00;96835.25;;;16.37;19.04
62524;BME280;53689;56.878;60.672;2023-02-21T05:16:28;96849.31;;;16.53;18.53
62524;BME280;53689;56.878;60.672;2023-02-21T05:18:56;96846.81;;;16.51;18.14
62524;BME280;53689;56.878;60.672;2023-02-21T05:21:25;96852.63;;;16.61;18.75
62524;BME280;53689;56.878;60.672;2023-02-21T05:23:53;96838.03;;;16.57;18.08
62524;BME280;53689;56.878;60.672;2023-02-21T05:26:22;96856.94;;;16.62;18.20
62524;BME280;53689;56.878;60.672;2023-02-21T05:28:50;96846.06;;;16.64;18.51
62524;BME280;53689;56.878;60.672;2023-02-21T05:31:18;96844.81;;;16.60;18.17
62524;BME280;53689;56.878;60.672;2023-02-21T05:33:46;96832.28;;;16.67;18.14
62524;BME280;53689;56.878;60.672;2023-02-21T05:36:13;96835.81;;;16.74;18.17
62524;BME280;53689;56.878;60.672;2023-02-21T05:38:46;96840.53;;;16.72;18.59
62524;BME280;53689;56.878;60.672;2023-02-21T05:41:14;96853.47;;;16.62;19.26
62524;BME280;53689;56.878;60.672;2023-02-21T05:43:43;96854.50;;;15.90;18.80
62524;BME280;53689;56.878;60.672;2023-02-21T05:46:23;96849.63;;;16.36;18.72
62524;BME280;53689;56.878;60.672;2023-02-21T05:48:50;96857.16;;;16.61;18.14
62524;BME280;53689;56.878;60.672;2023-02-21T05:51:19;96850.94;;;16.47;18.71
62524;BME280;53689;56.878;60.672;2023-02-21T05:53:48;96848.50;;;16.59;19.18
62524;BME280;53689;56.878;60.672;2023-02-21T05:56:16;96837.59;;;16.54;18.39
62524;BME280;53689;56.878;60.672;2023-02-21T05:58:43;96848.13;;;16.69;19.06
62524;BME280;53689;56.878;60.672;2023-02-21T06:01:11;96841.94;;;16.68;18.49
62524;BME280;53689;56.878;60.672;2023-02-21T06:03:39;96830.22;;;16.69;18.97
62524;BME280;53689;56.878;60.672;2023-02-21T06:06:07;96827.19;;;16.72;18.12
62524;BME280;53689;56.878;60.672;2023-02-21T06:08:41;96822.88;;;16.85;18.99
62524;BME280;53689;56.878;60.672;2023-02-21T06:11:10;96819.94;;;16.66;18.34
62524;BME280;53689;56.878;60.672;2023-02-21T06:13:40;96814.19;;;16.69;19.12
62524;BME280;53689;56.878;60.672;2023-02-21T06:16:07;96814.00;;;16.71;19.71
62524;BME280;53689;56.878;60.672;2023-02-21T06:18:35;96821.59;;;16.74;19.14
62524;BME280;53689;56.878;60.672;2023-02-21T06:21:03;96823.66;;;16.72;19.09
62524;BME280;53689;56.878;60.672;2023-02-21T06:23:30;96818.38;;;16.85;19.02
62524;BME280;53689;56.878;60.672;2023-02-21T06:25:58;96828.41;;;16.76;18.93
62524;BME280;53689;56.878;60.672;2023-02-21T06:28:29;96833.56;;;16.85;18.51
62524;BME280;53689;56.878;60.672;2023-02-21T06:30:56;96836.44;;;16.76;18.65
62524;BME280;53689;56.878;60.672;2023-02-21T06:33:24;96833.41;;;16.93;19.99
62524;BME280;53689;56.878;60.672;2023-02-21T06:35:52;96828.66;;;16.82;19.58
62524;BME280;53689;56.878;60.672;2023-02-21T06:38:20;96824.75;;;16.91;18.16
62524;BME280;53689;56.878;60.672;2023-02-21T06:40:47;96825.75;;;16.83;19.11
62524;BME280;53689;56.878;60.672;2023-02-21T06:43:15;96822.28;;;16.89;18.82
62524;BME280;53689;56.878;60.672;2023-02-21T06:45:45;96835.75;;;17.37;19.44
62524;BME280;53689;56.878;60.672;2023-02-21T06:48:16;96830.41;;;17.50;21.35
62524;BME280;53689;56.878;60.672;2023-02-21T06:50:44;96827.94;;;17.28;18.56
62524;BME280;53689;56.878;60.672;2023-02-21T06:53:12;96842.28;;;17.00;19.53
62524;BME280;53689;56.878;60.672;2023-02-21T06:55:39;96824.97;;;16.96;19.09
62524;BME280;53689;56.878;60.672;2023-02-21T06:58:07;96843.47;;;16.98;18.78
62524;BME280;53689;56.878;60.672;2023-02-21T07:00:35;96824.56;;;16.99;18.73
62524;BME280;53689;56.878;60.672;2023-02-21T07:03:05;96825.59;;;16.98;18.74
62524;BME280;53689;56.878;60.672;2023-02-21T07:05:32;96814.53;;;17.15;18.78
62524;BME280;53689;56.878;60.672;2023-02-21T07:08:00;96808.97;;;17.10;18.47
62524;BME280;53689;56.878;60.672;2023-02-21T07:10:28;96793.97;;;17.09;18.58
62524;BME280;53689;56.878;60.672;2023-02-21T07:12:56;96783.47;;;17.00;18.77
62524;BME280;53689;56.878;60.672;2023-02-21T07:15:24;96781.00;;;17.05;18.40
62524;BME280;53689;56.878;60.672;2023-02-21T07:17:52;96776.63;;;16.91;18.29
62524;BME280;53689;56.878;60.672;2023-02-21T07:20:21;96765.88;;;16.64;18.49
62524;BME280;53689;56.878;60.672;2023-02-21T07:22:48;96756.06;;;16.91;19.11
62524;BME280;53689;56.878;60.672;2023-02-21T07:25:17;96756.25;;;16.76;18.58
62524;BME280;53689;56.878;60.672;2023-02-21T07:27:46;96753.38;;;16.78;18.74
62524;BME280;53689;56.878;60.672;2023-02-21T07:30:14;96755.22;;;16.77;18.75
62524;BME280;53689;56.878;60.672;2023-02-21T07:32:42;96753.56;;;16.76;19.04
62524;BME280;53689;56.878;60.672;2023-02-21T07:35:10;96748.66;;;16.73;18.53
62524;BME280;53689;56.878;60.672;2023-02-21T07:37:39;96751.53;;;16.85;19.11
62524;BME280;53689;56.878;60.672;2023-02-21T07:40:07;96747.84;;;16.86;18.71
62524;BME280;53689;56.878;60.672;2023-02-21T07:42:35;96760.97;;;16.81;18.79
62524;BME280;53689;56.878;60.672;2023-02-21T07:45:03;96755.03;;;16.86;19.40
62524;BME280;53689;56.878;60.672;2023-02-21T07:47:31;96747.84;;;16.86;19.02
62524;BME280;53689;56.878;60.672;2023-02-21T07:49:58;96743.53;;;16.92;19.03
62524;BME280;53689;56.878;60.672;2023-02-21T07:52:26;96744.38;;;17.13;18.78
62524;BME280;53689;56.878;60.672;2023-02-21T07:54:55;96754.47;;;17.11;19.05
62524;BME280;53689;56.878;60.672;2023-02-21T07:57:23;96755.50;;;17.03;18.90
62524;BME280;53689;56.878;60.672;2023-02-21T07:59:50;96752.00;;;17.02;18.94
62524;BME280;53689;56.878;60.672;2023-02-21T08:02:18;96753.03;;;17.01;19.36
62524;BME280;53689;56.878;60.672;2023-02-21T08:04:49;96748.47;;;17.02;18.68
62524;BME280;53689;56.878;60.672;2023-02-21T08:07:17;96748.44;;;16.95;18.98
62524;BME280;53689;56.878;60.672;2023-02-21T08:09:46;96738.78;;;16.94;19.02
62524;BME280;53689;56.878;60.672;2023-02-21T08:12:16;96752.56;;;16.91;19.24
62524;BME280;53689;56.878;60.672;2023-02-21T08:14:43;96752.59;;;17.04;19.24
62524;BME280;53689;56.878;60.672;2023-02-21T08:17:11;96763.94;;;17.13;18.92
62524;BME280;53689;56.878;60.672;2023-02-21T08:19:38;96759.38;;;17.20;19.13
62524;BME280;53689;56.878;60.672;2023-02-21T08:22:06;96754.25;;;17.05;18.71
62524;BME280;53689;56.878;60.672;2023-02-21T08:24:33;96742.53;;;17.06;19.03
62524;BME280;53689;56.878;60.672;2023-02-21T08:27:01;96737.16;;;17.06;19.22
62524;BME280;53689;56.878;60.672;2023-02-21T08:29:30;96722.16;;;17.32;19.13
62524;BME280;53689;56.878;60.672;2023-02-21T08:31:58;96732.88;;;17.19;18.77
62524;BME280;53689;56.878;60.672;2023-02-21T08:34:26;96720.53;;;17.18;18.96
62524;BME280;53689;56.878;60.672;2023-02-21T08:36:54;96711.28;;;17.27;19.90
62524;BME280;53689;56.878;60.672;2023-02-21T08:39:22;96708.19;;;17.24;19.71
62524;BME280;53689;56.878;60.672;2023-02-21T08:41:50;96705.28;;;17.18;19.37
62524;BME280;53689;56.878;60.672;2023-02-21T08:44:17;96702.22;;;17.28;18.81
62524;BME280;53689;56.878;60.672;2023-02-21T08:46:47;96699.56;;;17.22;19.30
62524;BME280;53689;56.878;60.672;2023-02-21T08:49:16;96693.78;;;17.18;18.89
62524;BME280;53689;56.878;60.672;2023-02-21T08:51:44;96695.63;;;17.24;18.65
62524;BME280;53689;56.878;60.672;2023-02-21T08:54:12;96696.25;;;17.26;19.10
62524;BME280;53689;56.878;60.672;2023-02-21T08:56:40;96691.09;;;17.31;18.32
62524;BME280;53689;56.878;60.672;2023-02-21T08:59:07;96687.81;;;17.29;19.01
62524;BME280;53689;56.878;60.672;2023-02-21T09:01:35;96683.06;;;17.31;19.10
62524;BME280;53689;56.878;60.672;2023-02-21T09:04:05;96678.53;;;17.39;18.11
62524;BME280;53689;56.878;60.672;2023-02-21T09:06:32;96677.28;;;17.41;18.98
62524;BME280;53689;56.878;60.672;2023-02-21T09:09:00;96670.28;;;17.47;18.90
62524;BME280;53689;56.878;60.672;2023-02-21T09:11:28;96673.47;;;17.76;18.76
62524;BME280;53689;56.878;60.672;2023-02-21T09:13:56;96659.84;;;17.91;17.92
62524;BME280;53689;56.878;60.672;2023-02-21T09:16:24;96657.31;;;17.96;18.53
62524;BME280;53689;56.878;60.672;2023-02-21T09:18:55;96665.53;;;18.08;18.57
62524;BME280;53689;56.878;60.672;2023-02-21T09:21:24;96665.50;;;18.22;18.17
62524;BME280;53689;56.878;60.672;2023-02-21T09:23:53;96663.38;;;18.30;18.17
62524;BME280;53689;56.878;60.672;2023-02-21T09:26:22;96664.53;;;18.41;17.73
62524;BME280;53689;56.878;60.672;2023-02-21T09:28:50;96653.63;;;18.36;18.54
62524;BME280;53689;56.878;60.672;2023-02-21T09:31:19;96638.59;;;18.35;18.31
62524;BME280;53689;56.878;60.672;2023-02-21T09:33:47;96636.75;;;18.36;17.96
62524;BME280;53689;56.878;60.672;2023-02-21T09:36:15;96636.91;;;18.41;18.21
62524;BME280;53689;56.878;60.672;2023-02-21T09:38:46;96632.13;;;18.50;18.13
62524;BME280;53689;56.878;60.672;2023-02-21T09:41:14;96641.16;;;18.55;18.23
62524;BME280;53689;56.878;60.672;2023-02-21T09:43:44;96640.56;;;18.79;18.13
62524;BME280;53689;56.878;60.672;2023-02-21T09:46:17;96637.97;;;18.65;17.47
62524;BME280;53689;56.878;60.672;2023-02-21T09:48:46;96623.81;;;18.83;18.58
62524;BME280;53689;56.878;60.672;2023-02-21T09:51:16;96625.22;;;18.61;18.05
62524;BME280;53689;56.878;60.672;2023-02-21T09:53:47;96617.31;;;18.72;17.72
62524;BME280;53689;56.878;60.672;2023-02-21T09:56:20;96619.31;;;18.77;18.14
62524;BME280;53689;56.878;60.672;2023-02-21T09:58:51;96612.72;;;18.80;18.01
62524;BME280;53689;56.878;60.672;2023-02-21T10:01:24;96603.06;;;18.97;17.93
62524;BME280;53689;56.878;60.672;2023-02-21T10:04:01;96601.31;;;19.10;17.71
62524;BME280;53689;56.878;60.672;2023-02-21T10:06:38;96595.97;;;19.10;17.43
62524;BME280;53689;56.878;60.672;2023-02-21T10:09:18;96593.47;;;19.08;17.73
62524;BME280;53689;56.878;60.672;2023-02-21T10:11:57;96584.19;;;19.30;18.04
62524;BME280;53689;56.878;60.672;2023-02-21T10:14:31;96576.34;;;19.28;17.49
62524;BME280;53689;56.878;60.672;2023-02-21T10:17:09;96579.41;;;19.13;17.58
62524;BME280;53689;56.878;60.672;2023-02-21T10:19:41;96564.06;;;19.20;17.60
62524;BME280;53689;56.878;60.672;2023-02-21T10:22:13;96563.78;;;19.29;17.02
62524;BME280;53689;56.878;60.672;2023-02-21T10:24:46;96571.66;;;19.23;17.02
62524;BME280;53689;56.878;60.672;2023-02-21T10:27:17;96568.84;;;19.37;17.24
62524;BME280;53689;56.878;60.672;2023-02-21T10:29:49;96557.66;;;19.21;17.73
62524;BME280;53689;56.878;60.672;2023-02-21T10:32:17;96556.31;;;19.31;17.71
62524;BME280;53689;56.878;60.672;2023-02-21T10:34:47;96557.72;;;19.33;17.20
62524;BME280;53689;56.878;60.672;2023-02-21T10:37:25;96542.53;;;19.27;17.16
62524;BME280;53689;56.878;60.672;2023-02-21T10:40:00;96544.91;;;19.35;17.77
62524;BME280;53689;56.878;60.672;2023-02-21T10:42:32;96537.69;;;19.36;17.00
62524;BME280;53689;56.878;60.672;2023-02-21T10:45:02;96535.56;;;19.57;17.68
62524;BME280;53689;56.878;60.672;2023-02-21T10:47:42;96532.28;;;19.54;17.63
62524;BME280;53689;56.878;60.672;2023-02-21T10:50:12;96529.88;;;19.65;17.25
62524;BME280;53689;56.878;60.672;2023-02-21T10:52:46;96525.84;;;19.74;16.91
62524;BME280;53689;56.878;60.672;2023-02-21T10:55:18;96523.47;;;19.66;16.68
62524;BME280;53689;56.878;60.672;2023-02-21T10:58:06;96506.78;;;19.76;16.85
62524;BME280;53689;56.878;60.672;2023-02-21T11:00:36;96510.69;;;19.80;17.04
62524;BME280;53689;56.878;60.672;2023-02-21T11:03:06;96508.66;;;19.75;16.77
62524;BME280;53689;56.878;60.672;2023-02-21T11:05:39;96511.50;;;19.92;16.72
62524;BME280;53689;56.878;60.672;2023-02-21T11:08:08;96516.25;;;19.78;16.92
62524;BME280;53689;56.878;60.672;2023-02-21T11:10:39;96511.41;;;19.87;17.21
62524;BME280;53689;56.878;60.672;2023-02-21T11:13:14;96502.28;;;19.88;16.73
62524;BME280;53689;56.878;60.672;2023-02-21T11:15:42;96495.97;;;19.82;17.08
62524;BME280;53689;56.878;60.672;2023-02-21T11:18:16;96501.38;;;19.94;16.73
62524;BME280;53689;56.878;60.672;2023-02-21T11:20:45;96489.31;;;19.85;17.44
62524;BME280;53689;56.878;60.672;2023-02-21T11:23:33;96485.13;;;19.89;16.80
62524;BME280;53689;56.878;60.672;2023-02-21T11:26:08;96475.47;;;20.00;17.11
62524;BME280;53689;56.878;60.672;2023-02-21T11:28:37;96473.72;;;19.94;17.19
62524;BME280;53689;56.878;60.672;2023-02-21T11:31:12;96474.88;;;19.98;16.90
62524;BME280;53689;56.878;60.672;2023-02-21T11:33:49;96483.53;;;20.00;17.08
62524;BME280;53689;56.878;60.672;2023-02-21T11:36:19;96474.53;;;19.94;17.57
62524;BME280;53689;56.878;60.672;2023-02-21T11:39:00;96461.25;;;20.12;17.22
62524;BME280;53689;56.878;60.672;2023-02-21T11:41:35;96465.66;;;19.94;17.46
62524;BME280;53689;56.878;60.672;2023-02-21T11:44:22;96463.16;;;19.92;17.00
62524;BME280;53689;56.878;60.672;2023-02-21T11:46:55;96462.38;;;19.92;17.34
62524;BME280;53689;56.878;60.672;2023-02-21T11:49:38;96448.16;;;20.03;17.05
62524;BME280;53689;56.878;60.672;2023-02-21T11:52:11;96451.22;;;19.76;17.76
62524;BME280;53689;56.878;60.672;2023-02-21T11:54:41;96449.28;;;19.83;17.41
62524;BME280;53689;56.878;60.672;2023-02-21T11:57:17;96449.66;;;19.99;17.14
62524;BME280;53689;56.878;60.672;2023-02-21T11:59:52;96445.00;;;20.06;16.92
62524;BME280;53689;56.878;60.672;2023-02-21T12:02:48;96448.38;;;20.02;17.60
62524;BME280;53689;56.878;60.672;2023-02-21T12:05:29;96444.88;;;20.01;16.90
62524;BME280;53689;56.878;60.672;2023-02-21T12:08:14;96432.03;;;20.15;17.39
62524;BME280;53689;56.878;60.672;2023-02-21T12:10:53;96419.56;;;20.21;17.09
62524;BME280;53689;56.878;60.672;2023-02-21T12:13:31;96422.47;;;20.07;17.29
62524;BME280;53689;56.878;60.672;2023-02-21T12:16:09;96426.53;;;19.98;16.92
62524;BME280;53689;56.878;60.672;2023-02-21T12:18:51;96418.13;;;19.94;17.41
62524;BME280;53689;56.878;60.672;2023-02-21T12:21:41;96418.72;;;20.08;16.99
62524;BME280;53689;56.878;60.672;2023-02-21T12:24:25;96410.91;;;20.07;17.36
62524;BME280;53689;56.878;60.672;2023-02-21T12:26:59;96404.84;;;20.12;16.79
62524;BME280;53689;56.878;60.672;2023-02-21T12:29:41;96402.16;;;20.12;16.87
62524;BME280;53689;56.878;60.672;2023-02-21T12:32:30;96395.38;;;20.09;17.15
62524;BME280;53689;56.878;60.672;2023-02-21T12:38:06;96387.97;;;19.92;17.22
62524;BME280;53689;56.878;60.672;2023-02-21T12:40:41;96386.59;;;20.02;17.01
62524;BME280;53689;56.878;60.672;2023-02-21T12:46:11;96376.31;;;20.10;16.99
62524;BME280;53689;56.878;60.672;2023-02-21T12:48:44;96365.47;;;20.05;17.82
62524;BME280;53689;56.878;60.672;2023-02-21T12:51:17;96360.66;;;19.95;17.22
62524;BME280;53689;56.878;60.672;2023-02-21T12:53:50;96361.38;;;20.03;17.24
62524;BME280;53689;56.878;60.672;2023-02-21T12:56:23;96349.84;;;20.02;17.99
62524;BME280;53689;56.878;60.672;2023-02-21T12:58:54;96342.56;;;20.27;17.14
62524;BME280;53689;56.878;60.672;2023-02-21T13:01:28;96345.59;;;20.18;17.19
62524;BME280;53689;56.878;60.672;2023-02-21T13:04:05;96335.09;;;20.05;17.49
62524;BME280;53689;56.878;60.672;2023-02-21T13:06:40;96332.63;;;20.15;17.27
62524;BME280;53689;56.878;60.672;2023-02-21T13:09:16;96332.16;;;19.82;17.27
62524;BME280;53689;56.878;60.672;2023-02-21T13:11:56;96320.16;;;19.97;17.27
62524;BME280;53689;56.878;60.672;2023-02-21T13:14:33;96314.78;;;20.09;17.49
62524;BME280;53689;56.878;60.672;2023-02-21T13:17:03;96314.16;;;20.31;16.66
62524;BME280;53689;56.878;60.672;2023-02-21T13:19:40;96307.16;;;20.18;17.28
62524;BME280;53689;56.878;60.672;2023-02-21T13:22:15;96300.66;;;20.02;17.26